createdAt,value
2019-03-19T00:00:19.058Z,10.20
2019-03-19T00:02:46.672Z,10.20
2019-03-19T00:05:14.242Z,10.20
2019-03-19T00:07:41.736Z,10.20
2019-03-19T00:10:09.362Z,10.20
2019-03-19T00:12:36.846Z,10.10
2019-03-19T00:15:04.558Z,10.20
2019-03-19T00:20:06.148Z,10.10
2019-03-19T00:22:33.631Z,10.20
2019-03-19T00:25:11.740Z,10.70
2019-03-19T00:27:39.173Z,10.10
2019-03-19T00:30:07.708Z,10.10
2019-03-19T00:32:35.183Z,10.10
2019-03-19T00:35:02.984Z,10.10
2019-03-19T00:37:30.369Z,10.10
2019-03-19T00:39:57.893Z,10.10
2019-03-19T00:42:25.341Z,10.10
2019-03-19T00:44:52.881Z,10.10
2019-03-19T00:47:20.338Z,10.00
2019-03-19T00:49:47.811Z,12.90
2019-03-19T00:52:16.027Z,10.00
2019-03-19T00:54:43.563Z,10.70
2019-03-19T00:57:30.900Z,10.10
2019-03-19T00:59:58.407Z,10.10
2019-03-19T01:02:25.897Z,10.10
2019-03-19T01:04:53.368Z,10.10
2019-03-19T01:07:20.927Z,10.10
2019-03-19T01:09:49.297Z,10.10
2019-03-19T01:12:16.827Z,11.00
2019-03-19T01:14:44.385Z,10.10
2019-03-19T01:17:12.458Z,10.10
2019-03-19T01:19:40.057Z,10.10
2019-03-19T01:22:09.966Z,10.10
2019-03-19T01:24:37.769Z,10.10
2019-03-19T01:27:05.345Z,10.10
2019-03-19T01:29:32.703Z,10.10
2019-03-19T01:32:00.083Z,10.10
2019-03-19T01:34:27.577Z,10.20
2019-03-19T01:36:55.028Z,10.20
2019-03-19T01:39:22.631Z,10.10
2019-03-19T01:41:51.253Z,10.10
2019-03-19T01:46:47.511Z,10.10
2019-03-19T01:49:37.683Z,10.00
2019-03-19T01:52:24.768Z,10.10
2019-03-19T01:54:52.400Z,10.10
2019-03-19T01:57:19.885Z,10.20
2019-03-19T01:59:47.831Z,10.10
2019-03-19T02:05:43.366Z,9.90
2019-03-19T02:08:30.628Z,10.20
2019-03-19T02:10:58.486Z,9.90
2019-03-19T02:13:28.116Z,10.00
2019-03-19T02:15:55.817Z,9.90
2019-03-19T02:18:26.424Z,10.00
2019-03-19T02:20:53.931Z,9.90
2019-03-19T02:23:21.403Z,10.00
2019-03-19T02:25:48.905Z,10.00
2019-03-19T02:28:16.316Z,9.90
2019-03-19T02:30:43.767Z,13.50
2019-03-19T02:33:11.475Z,10.00
2019-03-19T02:35:39.028Z,9.90
2019-03-19T02:38:06.926Z,10.00
2019-03-19T02:40:34.775Z,10.00
2019-03-19T02:43:02.367Z,9.90
2019-03-19T02:45:29.917Z,10.00
2019-03-19T02:47:57.523Z,10.00
2019-03-19T02:50:25.078Z,10.00
2019-03-19T02:52:52.597Z,10.00
2019-03-19T02:55:20.006Z,10.00
2019-03-19T02:57:47.550Z,10.00
2019-03-19T03:00:14.882Z,10.00
2019-03-19T03:02:42.440Z,10.00
2019-03-19T03:05:10.882Z,13.50
2019-03-19T03:07:38.365Z,10.00
2019-03-19T03:10:06.779Z,10.00
2019-03-19T03:12:34.304Z,12.00
2019-03-19T03:17:29.302Z,10.00
2019-03-19T03:19:56.792Z,9.90
2019-03-19T03:22:24.338Z,9.90
2019-03-19T03:24:51.881Z,10.00
2019-03-19T03:27:19.395Z,9.90
2019-03-19T03:29:46.895Z,9.80
2019-03-19T03:32:14.487Z,10.00
2019-03-19T03:34:42.110Z,9.90
2019-03-19T03:37:09.844Z,9.90
2019-03-19T03:39:37.477Z,13.40
2019-03-19T03:42:05.136Z,6.50
2019-03-19T03:44:32.759Z,10.00
2019-03-19T03:47:00.266Z,10.00
2019-03-19T03:49:27.885Z,10.00
2019-03-19T03:51:55.251Z,10.00
2019-03-19T03:54:22.734Z,10.00
2019-03-19T03:57:01.361Z,10.00
2019-03-19T03:59:19.868Z,10.10
2019-03-19T04:01:47.314Z,10.10
2019-03-19T04:04:14.667Z,10.10
2019-03-19T04:09:09.734Z,10.10
2019-03-19T04:11:37.731Z,10.20
2019-03-19T04:14:05.352Z,10.20
2019-03-19T04:19:00.386Z,10.20
2019-03-19T04:21:27.901Z,13.00
2019-03-19T04:23:55.592Z,10.20
2019-03-19T04:26:23.139Z,10.20
2019-03-19T04:28:52.113Z,10.20
2019-03-19T04:31:19.894Z,10.20
2019-03-19T04:33:47.487Z,10.20
2019-03-19T04:36:15.164Z,10.30
2019-03-19T04:38:42.904Z,10.20
2019-03-19T04:41:10.749Z,10.20
2019-03-19T04:43:38.322Z,10.20
2019-03-19T04:46:06.295Z,12.40
2019-03-19T04:48:33.844Z,10.30
2019-03-19T04:51:04.430Z,10.30
2019-03-19T04:53:31.940Z,10.30
2019-03-19T04:55:59.407Z,10.30
2019-03-19T04:58:26.962Z,10.40
2019-03-19T05:00:54.560Z,13.50
2019-03-19T05:03:22.048Z,10.40
2019-03-19T05:05:49.609Z,12.50
2019-03-19T05:08:24.581Z,12.40
2019-03-19T05:10:52.068Z,13.50
2019-03-19T05:13:19.576Z,10.40
2019-03-19T05:15:47.118Z,10.40
2019-03-19T05:18:14.598Z,10.40
2019-03-19T05:20:42.292Z,10.40
2019-03-19T05:23:15.168Z,10.40
2019-03-19T05:25:42.620Z,10.40
2019-03-19T05:28:10.060Z,10.50
2019-03-19T05:30:37.858Z,10.50
2019-03-19T05:33:05.379Z,10.40
2019-03-19T05:35:42.073Z,10.50
2019-03-19T05:38:17.650Z,10.40
2019-03-19T05:40:45.225Z,10.50
2019-03-19T05:43:14.320Z,10.50
2019-03-19T05:45:41.759Z,10.40
2019-03-19T05:48:37.157Z,12.80
2019-03-19T05:51:17.602Z,10.70
2019-03-19T05:53:42.480Z,6.80
2019-03-19T05:56:10.014Z,10.70
2019-03-19T05:58:37.572Z,10.60
2019-03-19T06:01:05.034Z,10.60
2019-03-19T06:03:32.755Z,10.60
2019-03-19T06:06:03.498Z,10.60
2019-03-19T06:08:52.665Z,10.70
2019-03-19T06:23:27.784Z,10.70
2019-03-19T06:26:05.678Z,10.60
2019-03-19T06:28:35.553Z,9.70
2019-03-19T06:40:31.159Z,10.50
2019-03-19T06:42:58.692Z,10.60
2019-03-19T06:45:26.387Z,10.70
2019-03-19T06:47:53.889Z,10.70
2019-03-19T06:50:21.512Z,10.60
2019-03-19T06:52:49.143Z,13.80
2019-03-19T06:55:16.600Z,10.60
2019-03-19T06:57:44.171Z,13.20
2019-03-19T07:00:14.478Z,10.60
2019-03-19T07:02:42.015Z,10.60
2019-03-19T07:05:09.417Z,13.60
2019-03-19T07:07:39.835Z,13.30
2019-03-19T07:10:08.208Z,11.70
2019-03-19T07:12:35.727Z,10.60
2019-03-19T07:15:08.927Z,13.40
2019-03-19T07:17:36.673Z,10.80
2019-03-19T07:20:04.844Z,14.70
2019-03-19T07:24:59.868Z,11.00
2019-03-19T07:27:27.320Z,11.00
2019-03-19T07:29:54.769Z,14.10
2019-03-19T07:32:22.092Z,11.10
2019-03-19T07:34:49.519Z,12.20
2019-03-19T07:37:16.883Z,13.10
2019-03-19T07:39:44.357Z,11.40
2019-03-19T07:42:11.855Z,13.90
2019-03-19T07:44:39.450Z,11.50
2019-03-19T07:47:07.059Z,11.60
2019-03-19T07:49:35.908Z,7.80
2019-03-19T07:52:03.380Z,13.60
2019-03-19T07:54:30.951Z,11.80
2019-03-19T07:56:59.274Z,11.80
2019-03-19T07:59:26.709Z,11.90
2019-03-19T08:01:54.132Z,14.70
2019-03-19T08:04:21.634Z,11.90
2019-03-19T08:06:49.166Z,12.00
2019-03-19T08:09:16.599Z,12.00
2019-03-19T08:11:43.865Z,12.00
2019-03-19T08:14:11.356Z,12.10
2019-03-19T08:16:38.772Z,14.80
2019-03-19T08:19:06.088Z,13.80
2019-03-19T08:21:33.583Z,14.80
2019-03-19T08:24:01.108Z,14.30
2019-03-19T08:26:28.514Z,14.10
2019-03-19T08:28:56.056Z,16.40
2019-03-19T08:31:24.226Z,13.40
2019-03-19T08:33:51.583Z,13.00
2019-03-19T08:36:19.056Z,16.30
2019-03-19T08:38:46.592Z,13.20
2019-03-19T08:41:14.066Z,14.90
2019-03-19T08:43:41.542Z,13.80
2019-03-19T08:46:09.088Z,13.40
2019-03-19T08:48:37.469Z,13.50
2019-03-19T08:51:05.200Z,13.50
2019-03-19T08:53:32.666Z,13.60
2019-03-19T08:56:01.124Z,13.70
2019-03-19T08:58:28.684Z,16.90
2019-03-19T09:00:56.094Z,16.50
2019-03-19T09:03:23.434Z,16.70
2019-03-19T09:05:50.816Z,14.30
2019-03-19T09:08:18.288Z,15.70
2019-03-19T09:10:45.645Z,17.00
2019-03-19T09:13:13.198Z,15.10
2019-03-19T09:15:42.451Z,15.50
2019-03-19T09:18:10.142Z,15.80
2019-03-19T09:20:37.658Z,16.30
2019-03-19T09:23:05.143Z,16.60
2019-03-19T09:25:32.669Z,16.90
2019-03-19T09:28:01.114Z,17.10
2019-03-19T09:30:28.527Z,15.90
2019-03-19T09:32:58.864Z,17.20
2019-03-19T09:35:31.149Z,17.10
2019-03-19T09:37:59.309Z,17.00
2019-03-19T09:40:27.606Z,16.80
2019-03-19T09:42:55.953Z,16.60
2019-03-19T09:45:43.535Z,15.80
2019-03-19T09:48:47.650Z,14.20
2019-03-19T09:51:13.899Z,16.30
2019-03-19T09:53:42.666Z,17.40
2019-03-19T09:56:31.468Z,15.80
2019-03-19T09:59:27.604Z,15.80
2019-03-19T10:04:42.611Z,15.40
2019-03-19T10:07:16.533Z,15.60
2019-03-19T10:09:46.295Z,15.30
2019-03-19T10:12:18.965Z,19.20
2019-03-19T10:14:55.782Z,14.30
2019-03-19T10:17:25.041Z,15.70
2019-03-19T10:19:53.407Z,16.30
2019-03-19T10:22:42.426Z,15.10
2019-03-19T10:25:16.426Z,16.90
2019-03-19T10:27:45.356Z,17.40
2019-03-19T10:30:19.221Z,18.00
2019-03-19T10:33:06.797Z,18.30
2019-03-19T10:35:35.895Z,18.70
2019-03-19T10:38:06.820Z,21.40
2019-03-19T10:40:39.971Z,20.90
2019-03-19T10:43:10.930Z,19.20
2019-03-19T10:45:38.777Z,20.20
2019-03-19T10:48:09.071Z,20.50
2019-03-19T10:50:36.735Z,20.90
2019-03-19T10:53:04.369Z,21.20
2019-03-19T10:55:51.694Z,21.90
2019-03-19T10:58:19.304Z,22.10
2019-03-19T11:00:49.112Z,22.60
2019-03-19T11:03:16.643Z,23.00
2019-03-19T11:05:44.510Z,23.50
2019-03-19T11:08:14.548Z,23.80
2019-03-19T11:10:48.342Z,24.20
2019-03-19T11:13:42.412Z,24.40
2019-03-19T11:16:40.571Z,24.60
2019-03-19T11:19:36.529Z,24.50
2019-03-19T11:22:15.864Z,24.20
2019-03-19T11:25:13.114Z,21.00
2019-03-19T11:28:58.967Z,22.30
2019-03-19T11:31:45.412Z,23.50
2019-03-19T11:34:12.855Z,22.10
2019-03-19T11:39:56.245Z,23.80
2019-03-19T11:42:48.692Z,23.70
2019-03-19T11:45:25.276Z,24.70
2019-03-19T11:48:00.978Z,24.30
2019-03-19T11:53:51.231Z,24.70
2019-03-19T11:56:18.822Z,24.80
2019-03-19T11:58:58.464Z,24.80
2019-03-19T12:01:26.334Z,24.40
2019-03-19T12:03:56.447Z,26.90
2019-03-19T12:06:24.060Z,23.30
2019-03-19T12:08:51.677Z,19.80
2019-03-19T12:11:39.966Z,22.20
2019-03-19T12:14:10.747Z,21.70
2019-03-19T12:20:53.580Z,20.80
2019-03-19T12:23:40.279Z,20.30
2019-03-19T12:26:05.230Z,19.70
2019-03-19T12:28:39.760Z,19.30
2019-03-19T12:31:02.699Z,19.00
2019-03-19T12:33:40.268Z,18.70
2019-03-19T12:36:25.148Z,18.40
2019-03-19T12:38:52.734Z,18.10
2019-03-19T12:41:20.180Z,18.00
2019-03-19T12:43:47.931Z,17.80
2019-03-19T12:46:15.537Z,17.50
2019-03-19T12:48:43.809Z,17.50
2019-03-19T12:51:11.481Z,13.40
2019-03-19T12:53:39.012Z,17.20
2019-03-19T12:58:56.247Z,14.40
2019-03-19T13:01:30.134Z,17.30
2019-03-19T13:03:58.121Z,17.20
2019-03-19T13:06:36.244Z,17.20
2019-03-19T13:09:06.307Z,17.30
2019-03-19T13:11:33.845Z,17.30
2019-03-19T13:14:05.942Z,17.30
2019-03-19T13:16:33.506Z,17.50
2019-03-19T13:19:01.187Z,17.60
2019-03-19T13:21:32.614Z,15.00
2019-03-19T13:24:00.061Z,18.10
2019-03-19T13:26:27.749Z,18.50
2019-03-19T13:29:07.606Z,19.00
2019-03-19T13:31:35.093Z,19.40
2019-03-19T13:34:02.549Z,19.80
2019-03-19T13:36:30.066Z,20.30
2019-03-19T13:38:57.419Z,20.80
2019-03-19T13:41:25.183Z,21.40
2019-03-19T13:43:52.700Z,21.90
2019-03-19T13:46:20.054Z,22.40
2019-03-19T13:48:47.521Z,22.90
2019-03-19T13:51:14.941Z,23.40
2019-03-19T13:53:42.864Z,23.80
2019-03-19T13:56:10.444Z,26.90
2019-03-19T14:02:15.384Z,20.30
2019-03-19T14:04:42.906Z,24.50
2019-03-19T14:07:10.394Z,24.60
2019-03-19T14:09:37.830Z,24.70
2019-03-19T14:12:05.369Z,24.70
2019-03-19T14:14:34.934Z,24.80
2019-03-19T14:17:02.376Z,24.90
2019-03-19T14:19:29.870Z,24.90
2019-03-19T14:21:57.323Z,25.00
2019-03-19T14:24:24.791Z,25.10
2019-03-19T14:26:52.222Z,25.10
2019-03-19T14:29:19.660Z,25.20
2019-03-19T14:31:47.064Z,25.20
2019-03-19T14:34:14.525Z,25.20
2019-03-19T14:36:41.983Z,25.20
2019-03-19T14:39:09.444Z,25.20
2019-03-19T14:41:36.926Z,25.20
2019-03-19T14:44:04.374Z,27.30
2019-03-19T14:46:31.714Z,24.90
2019-03-19T14:48:59.162Z,24.70
2019-03-19T14:51:26.608Z,24.40
2019-03-19T14:53:54.395Z,24.10
2019-03-19T14:56:21.770Z,23.80
2019-03-19T14:58:49.222Z,23.50
2019-03-19T15:01:19.955Z,23.20
2019-03-19T15:03:47.634Z,22.90
2019-03-19T15:06:14.890Z,22.60
2019-03-19T15:08:42.364Z,22.30
2019-03-19T15:11:13.022Z,22.00
2019-03-19T15:13:40.431Z,21.80
2019-03-19T15:16:07.913Z,21.60
2019-03-19T15:18:35.409Z,21.50
2019-03-19T15:21:02.873Z,21.50
2019-03-19T15:23:31.046Z,21.50
2019-03-19T15:25:59.392Z,21.40
2019-03-19T15:28:26.876Z,21.30
2019-03-19T15:30:54.323Z,21.10
2019-03-19T15:33:22.631Z,20.50
2019-03-19T15:35:50.090Z,20.80
2019-03-19T15:38:17.937Z,20.50
2019-03-19T15:40:45.538Z,20.40
2019-03-19T15:43:12.968Z,18.90
2019-03-19T15:45:40.342Z,20.00
2019-03-19T15:48:07.625Z,19.90
2019-03-19T15:50:35.207Z,19.70
2019-03-19T15:53:02.567Z,19.60
2019-03-19T15:55:30.033Z,17.80
2019-03-19T15:57:57.399Z,19.20
2019-03-19T16:00:24.836Z,19.20
2019-03-19T16:02:52.348Z,18.80
2019-03-19T16:05:19.848Z,18.60
2019-03-19T16:07:47.385Z,18.50
2019-03-19T16:10:14.827Z,18.30
2019-03-19T16:12:42.188Z,18.20
2019-03-19T16:15:11.117Z,18.00
2019-03-19T16:17:38.478Z,17.90
2019-03-19T16:20:07.973Z,17.70
2019-03-19T16:22:35.509Z,17.60
2019-03-19T16:25:03.038Z,15.00
2019-03-19T16:27:30.541Z,17.30
2019-03-19T16:29:58.308Z,17.20
2019-03-19T16:32:25.733Z,17.00
2019-03-19T16:34:55.181Z,17.00
2019-03-19T16:37:22.659Z,16.90
2019-03-19T16:39:50.179Z,16.70
2019-03-19T16:42:17.564Z,16.70
2019-03-19T16:44:44.994Z,16.60
2019-03-19T16:47:12.648Z,16.40
2019-03-19T16:49:40.062Z,16.40
2019-03-19T16:52:07.464Z,16.30
2019-03-19T16:54:35.086Z,16.20
2019-03-19T16:57:02.531Z,16.10
2019-03-19T16:59:29.990Z,16.10
2019-03-19T17:02:01.868Z,16.00
2019-03-19T17:04:27.291Z,15.90
2019-03-19T17:06:54.748Z,15.90
2019-03-19T17:09:42.546Z,15.80
2019-03-19T17:12:10.353Z,15.70
2019-03-19T17:14:37.943Z,13.00
2019-03-19T17:17:05.527Z,15.50
2019-03-19T17:19:33.420Z,15.50
2019-03-19T17:22:00.811Z,15.40
2019-03-19T17:24:29.163Z,15.40
2019-03-19T17:26:56.801Z,15.40
2019-03-19T17:29:24.548Z,15.20
2019-03-19T17:31:52.030Z,15.20
2019-03-19T17:34:19.567Z,15.20
2019-03-19T17:36:46.862Z,15.20
2019-03-19T17:39:14.419Z,17.60
2019-03-19T17:44:09.216Z,15.00
2019-03-19T17:46:36.851Z,16.00
2019-03-19T17:49:04.325Z,14.70
2019-03-19T17:51:31.707Z,14.80
2019-03-19T17:53:59.143Z,14.80
2019-03-19T17:56:26.500Z,14.80
2019-03-19T17:58:54.062Z,14.70
2019-03-19T18:01:21.732Z,14.60
2019-03-19T18:03:49.051Z,14.60
2019-03-19T18:06:16.516Z,14.60
2019-03-19T18:08:44.188Z,14.50
2019-03-19T18:11:16.218Z,14.50
2019-03-19T18:13:43.778Z,14.40
2019-03-19T18:16:11.306Z,14.40
2019-03-19T18:18:38.968Z,14.40
2019-03-19T18:21:06.578Z,14.40
2019-03-19T18:23:34.171Z,14.30
2019-03-19T18:26:01.619Z,14.30
2019-03-19T18:28:29.274Z,14.30
2019-03-19T18:30:56.959Z,14.20
2019-03-19T18:33:25.481Z,14.20
2019-03-19T18:35:56.288Z,14.20
2019-03-19T18:38:25.695Z,14.10
2019-03-19T18:40:53.203Z,14.20
2019-03-19T18:43:20.770Z,14.10
2019-03-19T18:45:48.817Z,14.00
2019-03-19T18:48:16.307Z,14.00
2019-03-19T18:50:43.848Z,14.00
2019-03-19T18:53:12.215Z,14.00
2019-03-19T18:55:39.732Z,13.90
2019-03-19T18:58:07.478Z,13.80
2019-03-19T19:00:37.877Z,13.90
2019-03-19T19:03:05.368Z,13.80
2019-03-19T19:05:32.906Z,13.80
2019-03-19T19:08:00.526Z,13.70
2019-03-19T19:10:28.381Z,13.70
2019-03-19T19:12:56.511Z,13.70
2019-03-19T19:15:24.232Z,13.60
2019-03-19T19:17:51.797Z,13.60
2019-03-19T19:20:19.515Z,13.60
2019-03-19T19:22:47.298Z,13.60
2019-03-19T19:25:14.849Z,13.50
2019-03-19T19:27:42.505Z,13.40
2019-03-19T19:30:12.599Z,13.40
2019-03-19T19:32:40.320Z,13.40
2019-03-19T19:35:08.118Z,13.40
2019-03-19T19:37:35.747Z,13.30
2019-03-19T19:42:46.165Z,13.30
2019-03-19T19:47:41.921Z,13.30
2019-03-19T19:50:11.208Z,13.30
2019-03-19T19:55:07.792Z,13.20
2019-03-19T19:57:35.477Z,13.70
2019-03-19T20:00:03.870Z,13.20
2019-03-19T20:02:32.322Z,13.20
2019-03-19T20:08:28.458Z,13.10
2019-03-19T20:10:57.584Z,13.10
2019-03-19T20:13:29.573Z,13.20
2019-03-19T20:15:57.622Z,13.10
2019-03-19T20:31:54.865Z,13.00
2019-03-19T20:59:38.518Z,12.50
2019-03-19T21:02:09.263Z,12.50
2019-03-19T21:04:38.931Z,12.50
2019-03-19T21:07:08.293Z,12.40
